createdAt,value
2019-05-02T00:01:53.997Z,13.42
2019-05-02T00:04:21.922Z,13.29
2019-05-02T00:07:05.073Z,13.21
2019-05-02T00:09:34.735Z,13.18
2019-05-02T00:12:05.073Z,13.17
2019-05-02T00:14:33.275Z,13.04
2019-05-02T00:17:01.051Z,13.02
2019-05-02T00:19:28.875Z,12.98
2019-05-02T00:21:56.735Z,12.89
2019-05-02T00:24:24.511Z,13.00
2019-05-02T00:26:56.126Z,12.93
2019-05-02T00:29:23.727Z,12.81
2019-05-02T00:31:51.693Z,12.76
2019-05-02T00:34:19.497Z,12.84
2019-05-02T00:36:47.285Z,12.89
2019-05-02T00:39:15.300Z,13.03
2019-05-02T00:41:43.124Z,13.03
2019-05-02T00:44:12.230Z,13.02
2019-05-02T00:46:40.212Z,12.92
2019-05-02T00:49:08.000Z,12.88
2019-05-02T00:51:35.825Z,12.86
2019-05-02T00:54:03.712Z,12.79
2019-05-02T00:56:31.548Z,12.80
2019-05-02T00:59:02.245Z,12.63
2019-05-02T01:01:59.941Z,12.56
2019-05-02T01:04:30.537Z,12.60
2019-05-02T01:06:58.341Z,12.46
2019-05-02T01:09:26.241Z,12.37
2019-05-02T01:11:54.090Z,12.36
2019-05-02T01:14:21.886Z,12.28
2019-05-02T01:16:54.319Z,12.31
2019-05-02T01:19:19.350Z,12.38
2019-05-02T01:21:47.162Z,12.22
2019-05-02T01:24:14.924Z,12.13
2019-05-02T01:26:51.376Z,12.17
2019-05-02T01:29:33.883Z,12.05
2019-05-02T01:32:25.279Z,12.06
2019-05-02T01:34:59.627Z,12.02
2019-05-02T01:37:32.343Z,12.01
2019-05-02T01:40:00.143Z,11.99
2019-05-02T01:42:39.376Z,11.90
2019-05-02T01:44:57.609Z,11.83
2019-05-02T01:47:29.148Z,11.78
2019-05-02T01:49:57.181Z,11.70
2019-05-02T01:52:24.968Z,11.81
2019-05-02T01:54:52.909Z,11.74
2019-05-02T01:57:20.724Z,11.74
2019-05-02T01:59:48.469Z,11.68
2019-05-02T02:02:16.470Z,11.64
2019-05-02T02:04:44.259Z,11.65
2019-05-02T02:07:15.088Z,11.60
2019-05-02T02:09:43.948Z,11.54
2019-05-02T02:12:11.528Z,11.54
2019-05-02T02:14:39.393Z,11.58
2019-05-02T02:17:10.065Z,11.52
2019-05-02T02:19:43.232Z,11.48
2019-05-02T02:22:26.007Z,11.40
2019-05-02T02:25:11.943Z,11.41
2019-05-02T02:27:39.757Z,11.35
2019-05-02T02:30:07.860Z,11.31
2019-05-02T02:32:35.690Z,11.27
2019-05-02T02:35:10.208Z,11.22
2019-05-02T02:37:34.237Z,11.10
2019-05-02T02:40:02.427Z,11.13
2019-05-02T02:42:31.718Z,11.18
2019-05-02T02:45:25.115Z,11.16
2019-05-02T02:47:59.926Z,11.01
2019-05-02T02:50:22.652Z,10.95
2019-05-02T02:52:50.470Z,10.90
2019-05-02T02:55:22.032Z,10.86
2019-05-02T02:57:47.956Z,10.78
2019-05-02T03:00:16.264Z,10.85
2019-05-02T03:02:48.537Z,10.86
2019-05-02T03:05:18.959Z,10.78
2019-05-02T03:07:43.810Z,10.76
2019-05-02T03:10:11.704Z,10.75
2019-05-02T03:13:02.100Z,10.72
2019-05-02T03:15:32.378Z,10.77
2019-05-02T03:18:02.076Z,10.77
2019-05-02T03:20:40.006Z,10.71
2019-05-02T03:22:59.913Z,10.70
2019-05-02T03:25:49.178Z,10.58
2019-05-02T03:27:58.360Z,10.64
2019-05-02T03:30:35.283Z,10.71
2019-05-02T03:33:06.080Z,10.58
2019-05-02T03:35:40.634Z,10.51
2019-05-02T03:37:55.639Z,10.44
2019-05-02T03:40:23.447Z,10.40
2019-05-02T03:42:51.249Z,10.35
2019-05-02T03:45:19.068Z,10.43
2019-05-02T03:47:47.735Z,10.40
2019-05-02T03:50:15.562Z,10.43
2019-05-02T03:52:46.285Z,10.47
2019-05-02T03:55:13.100Z,10.49
2019-05-02T03:57:42.090Z,10.39
2019-05-02T04:00:13.745Z,10.32
2019-05-02T04:02:40.289Z,10.31
2019-05-02T04:05:08.120Z,10.32
2019-05-02T04:07:40.435Z,10.36
2019-05-02T04:10:07.280Z,10.26
2019-05-02T04:12:35.570Z,10.26
2019-05-02T04:15:03.737Z,10.23
2019-05-02T04:17:37.147Z,10.16
2019-05-02T04:20:09.454Z,10.27
2019-05-02T04:22:32.387Z,10.24
2019-05-02T04:25:00.178Z,10.30
2019-05-02T04:27:34.049Z,10.43
2019-05-02T04:30:09.811Z,10.46
2019-05-02T04:32:28.416Z,10.48
2019-05-02T04:34:58.006Z,10.50
2019-05-02T04:37:25.966Z,10.61
2019-05-02T04:39:58.166Z,10.52
2019-05-02T04:42:23.682Z,10.56
2019-05-02T04:45:11.890Z,10.59
2019-05-02T04:47:22.360Z,10.62
2019-05-02T04:49:51.939Z,10.71
2019-05-02T04:52:21.042Z,10.77
2019-05-02T04:54:49.284Z,10.84
2019-05-02T04:57:18.635Z,10.88
2019-05-02T04:59:50.083Z,11.02
2019-05-02T05:02:21.243Z,11.13
2019-05-02T05:04:49.217Z,11.14
2019-05-02T05:07:17.767Z,11.21
2019-05-02T05:09:47.908Z,11.18
2019-05-02T05:12:19.035Z,11.20
2019-05-02T05:14:47.208Z,11.33
2019-05-02T05:17:17.950Z,11.40
2019-05-02T05:19:44.709Z,11.30
2019-05-02T05:22:12.624Z,11.34
2019-05-02T05:24:47.695Z,11.62
2019-05-02T05:27:18.896Z,11.66
2019-05-02T05:29:46.652Z,11.81
2019-05-02T05:32:15.122Z,12.01
2019-05-02T05:34:42.921Z,12.07
2019-05-02T05:37:13.425Z,12.15
2019-05-02T05:39:43.182Z,12.34
2019-05-02T05:42:10.696Z,12.43
2019-05-02T05:44:39.975Z,12.52
2019-05-02T05:47:11.985Z,12.67
2019-05-02T05:49:37.639Z,12.75
2019-05-02T05:52:05.477Z,12.83
2019-05-02T05:54:38.349Z,12.87
2019-05-02T05:57:04.561Z,12.94
2019-05-02T05:59:32.465Z,12.85
2019-05-02T06:02:00.315Z,12.97
2019-05-02T06:04:32.643Z,13.04
2019-05-02T06:06:59.535Z,13.26
2019-05-02T06:09:31.041Z,13.12
2019-05-02T06:11:57.325Z,13.16
2019-05-02T06:14:26.347Z,13.21
2019-05-02T06:16:54.338Z,13.06
2019-05-02T06:19:22.457Z,12.76
2019-05-02T06:21:50.257Z,13.07
2019-05-02T06:24:18.116Z,13.35
2019-05-02T06:26:49.750Z,13.24
2019-05-02T06:29:18.810Z,12.97
2019-05-02T06:31:45.438Z,13.02
2019-05-02T06:34:13.259Z,13.04
2019-05-02T06:36:41.223Z,13.27
2019-05-02T06:39:09.127Z,13.57
2019-05-02T06:41:36.991Z,13.82
2019-05-02T06:44:04.791Z,13.64
2019-05-02T06:46:32.582Z,13.73
2019-05-02T06:49:00.404Z,13.89
2019-05-02T06:51:28.257Z,13.82
2019-05-02T06:53:56.076Z,13.98
2019-05-02T06:56:24.050Z,13.84
2019-05-02T06:58:51.841Z,13.78
2019-05-02T07:01:21.293Z,13.59
2019-05-02T07:03:49.480Z,13.60
2019-05-02T07:06:17.501Z,13.65
2019-05-02T07:08:45.544Z,13.63
2019-05-02T07:11:13.386Z,13.66
2019-05-02T07:13:42.055Z,13.49
2019-05-02T07:16:36.865Z,13.35
2019-05-02T07:18:53.539Z,13.04
2019-05-02T07:21:23.572Z,13.16
2019-05-02T07:23:53.536Z,13.85
2019-05-02T07:26:22.871Z,14.23
2019-05-02T07:28:50.553Z,14.36
2019-05-02T07:31:18.335Z,14.30
2019-05-02T07:33:46.131Z,14.53
2019-05-02T07:36:13.947Z,14.25
2019-05-02T07:38:41.729Z,14.29
2019-05-02T07:41:09.615Z,14.36
2019-05-02T07:43:37.393Z,14.67
2019-05-02T07:46:05.522Z,14.75
2019-05-02T07:48:33.296Z,14.61
2019-05-02T07:51:01.129Z,14.93
2019-05-02T07:53:28.917Z,15.19
2019-05-02T07:55:56.695Z,15.80
2019-05-02T07:58:24.484Z,16.24
2019-05-02T08:00:52.337Z,16.57
2019-05-02T08:03:20.093Z,16.54
2019-05-02T08:05:47.913Z,16.27
2019-05-02T08:08:15.691Z,16.17
2019-05-02T08:10:43.540Z,15.72
2019-05-02T08:13:12.113Z,15.97
2019-05-02T08:15:45.686Z,16.18
2019-05-02T08:18:10.906Z,16.56
2019-05-02T08:20:38.704Z,18.01
2019-05-02T08:23:06.575Z,19.72
2019-05-02T08:25:34.395Z,20.76
2019-05-02T08:28:25.410Z,21.94
2019-05-02T08:30:55.298Z,22.44
2019-05-02T08:33:23.101Z,21.23
2019-05-02T08:35:50.929Z,21.01
2019-05-02T08:38:19.057Z,20.90
2019-05-02T08:40:47.719Z,21.23
2019-05-02T08:43:16.604Z,21.53
2019-05-02T08:45:44.422Z,21.05
2019-05-02T08:48:12.248Z,20.43
2019-05-02T08:50:40.036Z,20.51
2019-05-02T08:53:07.930Z,19.97
2019-05-02T08:55:35.688Z,20.48
2019-05-02T08:58:06.605Z,20.52
2019-05-02T09:00:37.410Z,19.75
2019-05-02T09:03:04.790Z,20.11
2019-05-02T09:05:37.028Z,23.71
2019-05-02T09:08:02.508Z,25.42
2019-05-02T09:10:30.303Z,25.08
2019-05-02T09:12:58.137Z,24.09
2019-05-02T09:15:25.933Z,24.91
2019-05-02T09:17:56.460Z,28.30
2019-05-02T09:20:23.755Z,30.94
2019-05-02T09:22:55.810Z,30.71
2019-05-02T09:25:22.044Z,30.53
2019-05-02T09:27:49.982Z,29.79
2019-05-02T09:30:22.706Z,29.54
2019-05-02T09:32:48.384Z,32.26
2019-05-02T09:35:16.189Z,33.50
2019-05-02T09:37:44.017Z,34.07
2019-05-02T09:40:16.482Z,31.83
2019-05-02T09:42:43.025Z,28.94
2019-05-02T09:45:17.159Z,27.22
2019-05-02T09:47:56.586Z,25.53
2019-05-02T09:50:20.691Z,25.63
2019-05-02T09:52:46.262Z,27.39
2019-05-02T09:55:17.563Z,30.38
2019-05-02T09:57:45.410Z,33.23
2019-05-02T10:00:41.884Z,35.60
2019-05-02T10:03:12.097Z,36.81
2019-05-02T10:05:39.996Z,34.71
2019-05-02T10:08:10.998Z,34.63
2019-05-02T10:10:42.526Z,37.07
2019-05-02T10:13:08.036Z,39.51
2019-05-02T10:15:35.978Z,41.43
2019-05-02T10:18:10.954Z,41.14
2019-05-02T10:20:36.379Z,39.78
2019-05-02T10:23:04.489Z,40.54
2019-05-02T10:25:38.682Z,42.71
2019-05-02T10:28:02.456Z,43.19
2019-05-02T10:30:35.238Z,43.73
2019-05-02T10:33:02.604Z,40.98
2019-05-02T10:35:37.501Z,43.38
2019-05-02T10:38:03.690Z,42.25
2019-05-02T10:40:32.161Z,44.16
2019-05-02T10:43:00.106Z,43.69
2019-05-02T10:45:27.925Z,43.11
2019-05-02T10:47:55.728Z,43.57
2019-05-02T10:50:28.163Z,43.71
2019-05-02T10:52:55.952Z,43.27
2019-05-02T10:55:24.250Z,44.59
2019-05-02T10:57:52.822Z,44.97
2019-05-02T11:00:27.747Z,42.31
2019-05-02T11:03:16.243Z,40.40
2019-05-02T11:05:47.675Z,37.14
2019-05-02T11:08:15.482Z,34.23
2019-05-02T11:10:44.530Z,36.47
2019-05-02T11:13:18.238Z,38.58
2019-05-02T11:16:04.667Z,39.13
2019-05-02T11:18:48.681Z,40.25
2019-05-02T11:21:18.790Z,38.22
2019-05-02T11:23:46.462Z,36.48
2019-05-02T11:26:20.837Z,35.48
2019-05-02T11:28:43.991Z,37.08
2019-05-02T11:31:12.474Z,39.89
2019-05-02T11:33:41.893Z,36.88
2019-05-02T11:36:09.711Z,36.56
2019-05-02T11:38:48.546Z,37.41
2019-05-02T11:41:07.199Z,38.67
2019-05-02T11:43:37.129Z,42.50
2019-05-02T11:46:07.226Z,42.70
2019-05-02T11:48:34.533Z,44.17
2019-05-02T11:51:02.723Z,43.83
2019-05-02T11:53:32.546Z,44.38
2019-05-02T11:56:03.698Z,45.04
2019-05-02T11:58:32.498Z,43.22
2019-05-02T12:01:04.516Z,38.39
2019-05-02T12:03:42.266Z,35.68
2019-05-02T12:06:12.204Z,33.59
2019-05-02T12:08:45.017Z,32.23
2019-05-02T12:11:16.087Z,31.86
2019-05-02T12:13:39.676Z,33.45
2019-05-02T12:16:10.078Z,35.12
2019-05-02T12:18:37.923Z,38.35
2019-05-02T12:21:05.793Z,41.06
2019-05-02T12:23:36.142Z,41.20
2019-05-02T12:26:03.362Z,39.96
2019-05-02T12:28:32.394Z,39.45
2019-05-02T12:31:00.328Z,37.49
2019-05-02T12:33:32.304Z,38.52
2019-05-02T12:36:00.065Z,36.11
2019-05-02T12:38:27.908Z,36.69
2019-05-02T12:40:57.923Z,35.79
2019-05-02T12:43:25.443Z,31.65
2019-05-02T12:45:53.316Z,29.33
2019-05-02T12:48:21.985Z,28.10
2019-05-02T12:50:52.620Z,25.95
2019-05-02T12:53:21.919Z,27.10
2019-05-02T12:55:49.841Z,26.12
2019-05-02T12:58:17.632Z,25.34
2019-05-02T13:00:45.361Z,26.36
2019-05-02T13:03:36.477Z,29.42
2019-05-02T13:06:04.710Z,31.18
2019-05-02T13:08:35.235Z,29.16
2019-05-02T13:11:25.329Z,28.05
2019-05-02T13:13:53.576Z,27.24
2019-05-02T13:16:22.646Z,28.42
2019-05-02T13:18:51.885Z,26.30
2019-05-02T13:21:24.495Z,26.07
2019-05-02T13:24:16.411Z,25.05
2019-05-02T13:26:44.451Z,23.60
2019-05-02T13:29:12.891Z,23.79
2019-05-02T13:31:55.691Z,24.46
2019-05-02T13:34:37.401Z,24.43
2019-05-02T13:37:08.215Z,23.02
2019-05-02T13:39:52.924Z,25.03
2019-05-02T13:42:21.954Z,26.50
2019-05-02T13:44:57.075Z,26.81
2019-05-02T13:47:25.373Z,25.36
2019-05-02T13:49:57.288Z,24.15
2019-05-02T13:52:22.950Z,23.06
2019-05-02T13:54:52.242Z,24.60
2019-05-02T13:57:21.826Z,26.25
2019-05-02T13:59:49.783Z,27.69
2019-05-02T14:02:35.872Z,29.28
2019-05-02T14:05:06.638Z,27.75
2019-05-02T14:07:34.531Z,25.81
2019-05-02T14:10:07.678Z,25.13
2019-05-02T14:12:44.258Z,23.59
2019-05-02T14:15:14.573Z,22.89
2019-05-02T14:17:42.376Z,21.87
2019-05-02T14:20:13.169Z,22.28
2019-05-02T14:22:39.998Z,22.47
2019-05-02T14:25:08.388Z,22.72
2019-05-02T14:27:36.246Z,22.31
2019-05-02T14:30:06.856Z,22.44
2019-05-02T14:32:34.688Z,21.97
2019-05-02T14:35:11.874Z,21.55
2019-05-02T14:37:39.708Z,21.37
2019-05-02T14:40:27.642Z,21.55
2019-05-02T14:42:57.749Z,22.07
2019-05-02T14:45:30.357Z,22.17
2019-05-02T14:47:58.891Z,22.28
2019-05-02T14:50:26.585Z,21.66
2019-05-02T14:52:56.443Z,21.95
2019-05-02T14:55:26.175Z,21.43
2019-05-02T14:57:57.065Z,21.16
2019-05-02T15:00:26.632Z,21.06
2019-05-02T15:02:54.414Z,21.12
2019-05-02T15:05:27.903Z,20.79
2019-05-02T15:07:52.027Z,20.85
2019-05-02T15:10:22.702Z,20.84
2019-05-02T15:12:53.547Z,20.79
2019-05-02T15:15:20.543Z,20.91
2019-05-02T15:17:48.308Z,20.83
2019-05-02T15:20:16.359Z,21.04
2019-05-02T15:22:44.177Z,20.90
2019-05-02T15:25:16.242Z,20.88
2019-05-02T15:27:44.970Z,20.93
2019-05-02T15:30:12.509Z,20.62
2019-05-02T15:32:52.484Z,20.63
2019-05-02T15:35:42.594Z,20.51
2019-05-02T15:38:14.464Z,20.23
2019-05-02T15:40:48.162Z,20.12
2019-05-02T15:43:10.054Z,20.30
2019-05-02T15:45:43.414Z,20.39
2019-05-02T15:48:07.900Z,20.37
2019-05-02T15:50:35.692Z,20.49
2019-05-02T15:53:18.376Z,20.10
2019-05-02T15:55:46.131Z,19.95
2019-05-02T15:58:22.432Z,19.99
2019-05-02T16:00:52.095Z,20.18
2019-05-02T16:03:20.453Z,20.28
2019-05-02T16:05:49.664Z,20.42
2019-05-02T16:08:17.450Z,20.50
2019-05-02T16:10:45.316Z,20.49
2019-05-02T16:13:17.133Z,20.33
2019-05-02T16:15:43.364Z,20.16
2019-05-02T16:18:12.757Z,20.23
2019-05-02T16:21:04.884Z,20.39
2019-05-02T16:23:32.803Z,20.54
2019-05-02T16:25:56.902Z,20.59
2019-05-02T16:28:25.696Z,20.57
2019-05-02T16:30:56.100Z,20.86
2019-05-02T16:33:23.935Z,20.72
2019-05-02T16:35:54.488Z,20.47
2019-05-02T16:38:22.243Z,20.29
2019-05-02T16:40:50.146Z,19.95
2019-05-02T16:43:17.934Z,20.04
2019-05-02T16:45:45.790Z,19.70
2019-05-02T16:48:13.603Z,19.43
2019-05-02T16:50:42.041Z,19.47
2019-05-02T16:53:11.654Z,19.20
2019-05-02T16:55:39.590Z,18.98
2019-05-02T16:58:07.544Z,18.89
2019-05-02T17:00:36.925Z,19.01
2019-05-02T17:03:05.350Z,19.16
2019-05-02T17:05:33.283Z,19.12
2019-05-02T17:08:18.834Z,19.17
2019-05-02T17:10:53.699Z,19.20
2019-05-02T17:13:18.555Z,19.20
2019-05-02T17:15:46.382Z,19.13
2019-05-02T17:18:17.840Z,19.23
2019-05-02T17:20:46.957Z,19.12
2019-05-02T17:23:13.611Z,18.83
2019-05-02T17:25:41.673Z,18.68
2019-05-02T17:28:12.741Z,18.63
2019-05-02T17:30:40.658Z,18.31
2019-05-02T17:33:12.765Z,18.31
2019-05-02T17:35:43.435Z,18.28
2019-05-02T17:38:08.482Z,18.11
2019-05-02T17:40:36.307Z,18.06
2019-05-02T17:43:06.835Z,17.77
2019-05-02T17:45:38.631Z,17.65
2019-05-02T17:48:10.430Z,17.41
2019-05-02T17:50:59.241Z,17.30
2019-05-02T17:53:26.282Z,17.40
2019-05-02T17:55:54.083Z,17.24
2019-05-02T17:58:21.926Z,17.32
2019-05-02T18:00:56.997Z,17.30
2019-05-02T18:03:24.096Z,17.21
2019-05-02T18:05:52.910Z,17.20
2019-05-02T18:08:21.884Z,17.07
2019-05-02T18:10:50.585Z,16.98
2019-05-02T18:13:19.703Z,16.82
2019-05-02T18:15:47.590Z,16.91
2019-05-02T18:18:15.409Z,16.82
2019-05-02T18:20:46.486Z,16.77
2019-05-02T18:23:13.079Z,16.79
2019-05-02T18:25:40.932Z,16.71
2019-05-02T18:28:08.835Z,16.50
2019-05-02T18:30:36.855Z,16.42
2019-05-02T18:33:07.171Z,16.42
2019-05-02T18:35:37.363Z,16.62
2019-05-02T18:38:04.979Z,16.49
2019-05-02T18:40:32.895Z,16.25
2019-05-02T18:43:02.029Z,16.23
2019-05-02T18:45:58.251Z,16.36
2019-05-02T18:48:25.109Z,16.23
2019-05-02T18:50:53.072Z,16.03
2019-05-02T18:53:25.740Z,16.01
2019-05-02T18:55:51.922Z,15.95
2019-05-02T18:58:20.075Z,15.90
2019-05-02T19:00:47.970Z,15.80
2019-05-02T19:03:17.251Z,15.69
2019-05-02T19:05:46.724Z,15.65
2019-05-02T19:08:14.690Z,15.57
2019-05-02T19:11:01.397Z,15.63
2019-05-02T19:13:12.862Z,15.64
2019-05-02T19:15:45.192Z,15.68
2019-05-02T19:18:17.723Z,15.57
2019-05-02T19:21:06.051Z,15.71
2019-05-02T19:23:35.195Z,15.64
2019-05-02T19:26:10.102Z,15.64
2019-05-02T19:28:47.757Z,15.62
2019-05-02T19:31:15.769Z,15.45
2019-05-02T19:33:44.158Z,15.22
2019-05-02T19:36:16.298Z,15.21
2019-05-02T19:38:42.836Z,15.15
2019-05-02T19:41:11.648Z,15.11
2019-05-02T19:43:49.536Z,15.01
2019-05-02T19:46:12.095Z,14.92
2019-05-02T19:48:41.039Z,15.01
2019-05-02T19:51:18.302Z,15.08
2019-05-02T19:53:39.823Z,15.03
2019-05-02T19:56:07.648Z,15.00
2019-05-02T19:58:36.687Z,15.01
2019-05-02T20:01:05.537Z,15.04
2019-05-02T20:03:33.357Z,15.02
2019-05-02T20:06:05.827Z,14.92
2019-05-02T20:08:32.646Z,14.79
2019-05-02T20:11:02.167Z,14.68
2019-05-02T20:13:32.509Z,14.47
2019-05-02T20:16:06.136Z,14.31
2019-05-02T20:18:42.123Z,14.13
2019-05-02T20:21:23.468Z,13.97
2019-05-02T20:23:44.647Z,13.87
2019-05-02T20:26:15.537Z,13.83
2019-05-02T20:28:42.576Z,13.66
2019-05-02T20:31:12.358Z,13.49
2019-05-02T20:33:40.362Z,13.45
2019-05-02T20:36:08.496Z,13.40
2019-05-02T20:38:36.384Z,13.39
2019-05-02T20:41:04.314Z,13.22
2019-05-02T20:43:32.432Z,13.17
2019-05-02T20:46:02.385Z,13.22
2019-05-02T20:48:32.042Z,13.25
2019-05-02T20:50:59.837Z,13.29
2019-05-02T20:53:31.110Z,13.29
2019-05-02T20:58:24.874Z,13.35
2019-05-02T21:01:05.101Z,13.38
2019-05-02T21:03:22.422Z,13.39
2019-05-02T21:06:09.831Z,13.39
2019-05-02T21:09:15.517Z,13.30
2019-05-02T21:11:49.854Z,13.28
2019-05-02T21:14:18.139Z,13.49
2019-05-02T21:16:45.998Z,13.32
2019-05-02T21:19:13.812Z,13.27
2019-05-02T21:21:42.691Z,13.23
2019-05-02T21:24:11.464Z,13.28
2019-05-02T21:26:39.551Z,13.40
2019-05-02T21:29:07.369Z,13.45
2019-05-02T21:31:35.170Z,13.45
2019-05-02T21:34:03.027Z,13.48
2019-05-02T21:36:31.928Z,13.47
2019-05-02T21:38:59.864Z,13.53
2019-05-02T21:41:27.752Z,13.75
2019-05-02T21:43:55.601Z,14.04
2019-05-02T21:46:23.466Z,13.94
2019-05-02T21:48:52.642Z,13.78
2019-05-02T21:51:58.289Z,13.87
2019-05-02T21:54:34.425Z,13.95
2019-05-02T21:57:09.363Z,13.95
2019-05-02T21:59:37.217Z,13.83
2019-05-02T22:02:08.374Z,13.97
2019-05-02T22:04:36.233Z,14.07
2019-05-02T22:07:04.245Z,14.15
2019-05-02T22:09:32.442Z,13.92
2019-05-02T22:12:00.622Z,13.84
2019-05-02T22:14:28.784Z,13.82
2019-05-02T22:16:56.613Z,13.83
2019-05-02T22:19:24.445Z,13.91
2019-05-02T22:21:52.626Z,13.88
2019-05-02T22:24:20.581Z,13.77
2019-05-02T22:26:48.404Z,13.79
2019-05-02T22:29:16.228Z,14.02
2019-05-02T22:31:44.375Z,14.08
2019-05-02T22:34:12.837Z,14.12
2019-05-02T22:36:41.112Z,14.27
2019-05-02T22:39:22.191Z,14.00
2019-05-02T22:41:50.167Z,14.07
2019-05-02T22:44:17.983Z,13.94
2019-05-02T22:46:45.919Z,13.82
2019-05-02T22:49:14.916Z,13.81
2019-05-02T22:51:43.582Z,13.71
2019-05-02T22:54:24.060Z,13.62
2019-05-02T22:56:42.607Z,13.80
2019-05-02T22:59:10.617Z,13.92
2019-05-02T23:01:38.560Z,13.95
2019-05-02T23:04:06.348Z,13.76
2019-05-02T23:06:34.240Z,13.77
2019-05-02T23:09:02.146Z,13.72
2019-05-02T23:11:29.928Z,13.83
2019-05-02T23:13:57.720Z,13.71
2019-05-02T23:16:25.588Z,13.78
2019-05-02T23:18:53.357Z,13.66
2019-05-02T23:21:21.785Z,13.66
2019-05-02T23:23:49.677Z,13.69
2019-05-02T23:26:43.272Z,13.73
2019-05-02T23:29:12.862Z,13.65
2019-05-02T23:31:42.305Z,13.75
2019-05-02T23:34:10.246Z,13.84
2019-05-02T23:36:38.069Z,13.75
2019-05-02T23:39:08.753Z,13.69
2019-05-02T23:41:36.920Z,13.70
2019-05-02T23:44:04.877Z,13.83
2019-05-02T23:46:34.772Z,13.84
2019-05-02T23:49:02.694Z,13.69
2019-05-02T23:51:32.099Z,13.79
2019-05-02T23:54:02.001Z,13.69
2019-05-02T23:56:32.262Z,13.64
2019-05-02T23:58:59.781Z,13.62
